Time;durP1;ratioP1;P1;durP2;ratioP2;P2;SDS_P1;SDS_P2;PMS_P1;PMS_P2;Temp;Humidity;BMP_temperature;BMP_pressure;BME280_temperature;BME280_humidity;BME280_pressure;Samples;Min_cycle;Max_cycle;Signal;HPM_P1;HPM_P2
2022/09/09 00:02:03;;;;;;;22.58;17.35;;;15.80;99.90;;;;;;5070774;28;20198;-76
2022/09/09 00:04:34;;;;;;;21.48;19.13;;;15.80;99.90;;;;;;5065477;28;20323;-75
2022/09/09 00:07:05;;;;;;;19.52;17.35;;;15.80;99.90;;;;;;5072608;28;20259;-74
2022/09/09 00:09:40;;;;;;;24.50;22.00;;;15.80;99.90;;;;;;5066452;28;20287;-74
2022/09/09 00:12:12;;;;;;;24.58;20.40;;;15.90;99.90;;;;;;5063179;28;20230;-74
2022/09/09 00:14:49;;;;;;;25.20;21.90;;;15.90;99.90;;;;;;5066294;28;20686;-74
2022/09/09 00:17:27;;;;;;;25.30;21.83;;;15.80;99.90;;;;;;5067335;28;20228;-75
2022/09/09 00:20:02;;;;;;;23.20;20.60;;;15.80;99.90;;;;;;5064969;28;20724;-75
2022/09/09 00:22:31;;;;;;;25.65;22.48;;;15.80;99.90;;;;;;5069367;28;20662;-76
2022/09/09 00:25:10;;;;;;;27.40;23.17;;;15.80;99.90;;;;;;5066441;28;20665;-74
2022/09/09 00:27:44;;;;;;;20.55;18.52;;;15.80;99.90;;;;;;5070607;28;20236;-74
2022/09/09 00:30:19;;;;;;;21.58;19.23;;;15.80;99.90;;;;;;5067971;28;20650;-75
2022/09/09 00:32:47;;;;;;;31.65;24.30;;;15.90;99.90;;;;;;5071969;28;20199;-74
2022/09/09 00:35:22;;;;;;;30.67;24.20;;;15.80;99.90;;;;;;5072364;28;20215;-74
2022/09/09 00:37:51;;;;;;;36.42;27.65;;;15.80;99.90;;;;;;5070569;28;20315;-74
2022/09/09 00:40:26;;;;;;;28.50;23.58;;;15.80;99.90;;;;;;5072037;28;20208;-75
2022/09/09 00:43:05;;;;;;;28.17;22.95;;;15.70;99.90;;;;;;5058836;28;20203;-75
2022/09/09 00:45:55;;;;;;;29.05;23.48;;;15.80;99.90;;;;;;5070845;28;20210;-74
2022/09/09 00:48:27;;;;;;;26.02;22.00;;;15.70;99.90;;;;;;5067957;28;20307;-73
2022/09/09 00:51:00;;;;;;;24.95;21.33;;;15.70;99.90;;;;;;5071759;28;20207;-74
2022/09/09 00:53:37;;;;;;;25.45;22.48;;;15.80;99.90;;;;;;5069658;28;20204;-76
2022/09/09 00:56:14;;;;;;;31.30;25.05;;;15.70;99.90;;;;;;5070857;28;20216;-75
2022/09/09 00:58:44;;;;;;;29.10;24.25;;;15.70;99.90;;;;;;5062940;28;20252;-75
2022/09/09 01:01:13;;;;;;;29.05;22.15;;;15.80;99.90;;;;;;5071868;28;20613;-75
2022/09/09 01:03:48;;;;;;;29.00;25.90;;;15.70;99.90;;;;;;5068099;28;20588;-75
2022/09/09 01:06:24;;;;;;;24.38;21.27;;;15.70;99.90;;;;;;5065743;28;20253;-75
2022/09/09 01:09:04;;;;;;;33.67;24.38;;;15.60;99.90;;;;;;5068430;28;20291;-75
2022/09/09 01:11:45;;;;;;;34.45;27.10;;;15.60;99.90;;;;;;5062272;28;20203;-74
2022/09/09 01:14:20;;;;;;;30.20;23.67;;;15.60;99.90;;;;;;5070994;28;20222;-74
2022/09/09 01:16:48;;;;;;;27.45;23.77;;;15.50;99.90;;;;;;5072911;28;20334;-75
2022/09/09 01:19:25;;;;;;;31.55;25.63;;;15.50;99.90;;;;;;5068962;28;20288;-75
2022/09/09 01:22:01;;;;;;;27.08;23.25;;;15.50;99.90;;;;;;5065109;28;20568;-72
2022/09/09 01:24:38;;;;;;;30.75;26.40;;;15.50;99.90;;;;;;5071170;28;20199;-75
2022/09/09 01:27:08;;;;;;;25.90;22.83;;;15.50;99.90;;;;;;5071812;28;20585;-74
2022/09/09 01:29:35;;;;;;;30.30;24.83;;;15.50;99.90;;;;;;5087208;28;20286;-75
2022/09/09 01:32:25;;;;;;;33.88;25.23;;;15.50;99.90;;;;;;5091350;28;20243;-75
2022/09/09 01:34:53;;;;;;;25.15;22.42;;;15.40;99.90;;;;;;5076972;28;20229;-72
2022/09/09 01:37:19;;;;;;;26.30;23.33;;;15.40;99.90;;;;;;5078926;28;20235;-76
2022/09/09 01:39:47;;;;;;;22.92;20.05;;;15.40;99.90;;;;;;5074920;28;20648;-73
2022/09/09 01:42:18;;;;;;;26.42;20.70;;;15.40;99.90;;;;;;5075849;28;20204;-76
2022/09/09 01:44:45;;;;;;;25.35;22.65;;;15.40;99.90;;;;;;5068007;28;20197;-74
2022/09/09 01:47:12;;;;;;;29.60;22.45;;;15.40;99.90;;;;;;5068373;28;20312;-75
2022/09/09 01:49:39;;;;;;;27.63;24.05;;;15.40;99.90;;;;;;5071865;28;20200;-75
2022/09/09 01:52:08;;;;;;;23.77;20.95;;;15.30;99.90;;;;;;5070356;28;20367;-74
2022/09/09 01:54:35;;;;;;;28.58;21.67;;;15.30;99.90;;;;;;5065125;28;20220;-76
2022/09/09 01:57:12;;;;;;;28.52;22.23;;;15.30;99.90;;;;;;5070651;28;20227;-74
2022/09/09 01:59:50;;;;;;;20.52;18.42;;;15.30;99.90;;;;;;5066169;28;20559;-74
2022/09/09 02:02:20;;;;;;;27.20;21.02;;;15.40;99.90;;;;;;5077094;28;20655;-73
2022/09/09 02:04:49;;;;;;;22.15;19.75;;;15.30;99.90;;;;;;5065753;28;20204;-75
2022/09/09 02:07:38;;;;;;;22.98;20.00;;;15.30;99.90;;;;;;5069250;28;20219;-74
2022/09/09 02:10:12;;;;;;;20.35;18.38;;;15.30;99.90;;;;;;5064046;28;20205;-73
2022/09/09 02:12:43;;;;;;;25.65;21.30;;;15.20;99.90;;;;;;5073183;28;20196;-74
2022/09/09 02:15:19;;;;;;;25.02;20.88;;;15.20;99.90;;;;;;5073629;28;20306;-75
2022/09/09 02:17:48;;;;;;;27.83;21.15;;;15.10;99.90;;;;;;5073987;28;20222;-74
2022/09/09 02:20:16;;;;;;;23.80;19.05;;;15.00;99.90;;;;;;5072860;28;20626;-74
2022/09/09 02:22:46;;;;;;;21.70;19.42;;;15.00;99.90;;;;;;5074753;28;20191;-74
2022/09/09 02:25:17;;;;;;;26.27;20.67;;;15.00;99.90;;;;;;5073083;28;20198;-74
2022/09/09 02:27:46;;;;;;;22.70;19.23;;;15.00;99.90;;;;;;5073932;28;20225;-74
2022/09/09 02:30:15;;;;;;;25.77;21.00;;;14.90;99.90;;;;;;5074055;28;20199;-75
2022/09/09 02:32:44;;;;;;;20.30;16.95;;;14.90;99.90;;;;;;5066641;28;20639;-76
2022/09/09 02:35:14;;;;;;;21.23;18.58;;;14.90;99.90;;;;;;5072596;28;20596;-76
2022/09/09 02:37:43;;;;;;;23.67;18.73;;;15.00;99.90;;;;;;5071755;28;20223;-74
2022/09/09 02:40:13;;;;;;;25.65;19.92;;;15.00;99.90;;;;;;5072522;28;20352;-74
2022/09/09 02:42:41;;;;;;;23.23;18.50;;;14.90;99.90;;;;;;5071327;28;20336;-74
2022/09/09 02:45:09;;;;;;;29.58;21.35;;;14.90;99.90;;;;;;5078945;28;20286;-74
2022/09/09 02:47:46;;;;;;;23.15;18.10;;;14.90;99.90;;;;;;5074446;28;20228;-74
2022/09/09 02:50:16;;;;;;;23.73;18.15;;;14.90;99.90;;;;;;5072141;28;20199;-73
2022/09/09 02:53:02;;;;;;;19.95;17.85;;;14.80;99.90;;;;;;5072902;28;20234;-74
2022/09/09 02:55:38;;;;;;;23.63;16.92;;;14.90;99.90;;;;;;5072278;28;20211;-75
2022/09/09 02:58:09;;;;;;;19.75;17.65;;;14.90;99.90;;;;;;5074111;28;20656;-74
2022/09/09 03:00:37;;;;;;;18.80;15.63;;;14.90;99.90;;;;;;5072179;28;20202;-74
2022/09/09 03:03:06;;;;;;;18.90;16.90;;;14.90;99.90;;;;;;5074043;28;20658;-75
2022/09/09 03:05:33;;;;;;;17.00;15.27;;;14.80;99.90;;;;;;5071869;28;20282;-74
2022/09/09 03:08:00;;;;;;;17.13;15.32;;;14.80;99.90;;;;;;5073785;28;20218;-75
2022/09/09 03:10:33;;;;;;;19.45;15.55;;;14.80;99.90;;;;;;5073587;28;20313;-74
2022/09/09 03:13:00;;;;;;;19.65;15.95;;;14.90;99.90;;;;;;5074439;28;20198;-74
2022/09/09 03:15:28;;;;;;;17.33;14.50;;;14.90;99.90;;;;;;5075264;28;20727;-75
2022/09/09 03:17:56;;;;;;;18.65;15.30;;;14.80;99.90;;;;;;5073628;28;20219;-75
2022/09/09 03:20:26;;;;;;;17.63;15.00;;;14.80;99.90;;;;;;5072091;28;20218;-75
2022/09/09 03:22:53;;;;;;;17.02;15.23;;;14.80;99.90;;;;;;5074820;28;20195;-76
2022/09/09 03:25:23;;;;;;;20.17;15.50;;;14.90;99.90;;;;;;5085297;28;20294;-73
2022/09/09 03:27:52;;;;;;;25.10;15.82;;;14.90;99.90;;;;;;5080389;28;20226;-74
2022/09/09 03:30:19;;;;;;;17.30;15.23;;;14.90;99.90;;;;;;5070841;28;20203;-75
2022/09/09 03:32:46;;;;;;;15.30;13.75;;;14.90;99.90;;;;;;5075049;28;20200;-74
2022/09/09 03:35:13;;;;;;;15.98;13.73;;;14.90;99.90;;;;;;5073961;28;20306;-74
2022/09/09 03:37:41;;;;;;;16.92;14.48;;;15.00;99.90;;;;;;5068605;28;20345;-76
2022/09/09 03:40:10;;;;;;;16.42;13.85;;;15.00;99.90;;;;;;5070473;28;20209;-73
2022/09/09 03:42:37;;;;;;;14.23;12.70;;;15.00;99.90;;;;;;5081133;28;20704;-74
2022/09/09 03:45:06;;;;;;;15.02;12.73;;;15.00;99.90;;;;;;5073671;28;20205;-74
2022/09/09 03:47:33;;;;;;;14.98;12.10;;;15.00;99.90;;;;;;5072868;28;20258;-73
2022/09/09 03:50:00;;;;;;;13.20;11.80;;;15.00;99.90;;;;;;5073238;28;20282;-74
2022/09/09 03:52:27;;;;;;;14.80;11.65;;;15.10;99.90;;;;;;5071148;28;20283;-75
2022/09/09 03:54:56;;;;;;;12.40;10.57;;;15.10;99.90;;;;;;5065189;28;20208;-74
2022/09/09 03:57:23;;;;;;;13.30;11.00;;;15.10;99.90;;;;;;5069755;28;21729;-73
2022/09/09 03:59:50;;;;;;;12.45;9.95;;;15.20;99.90;;;;;;5072239;28;20233;-74
2022/09/09 04:02:17;;;;;;;12.88;10.93;;;15.20;99.90;;;;;;5072900;28;20278;-74
2022/09/09 04:04:44;;;;;;;14.95;10.60;;;15.20;99.90;;;;;;5072645;28;20279;-73
2022/09/09 04:07:11;;;;;;;11.35;10.25;;;15.30;99.90;;;;;;5069897;28;20220;-74
2022/09/09 04:09:38;;;;;;;11.38;10.00;;;15.30;99.90;;;;;;5075183;28;20194;-74
2022/09/09 04:12:07;;;;;;;11.63;10.15;;;15.20;99.90;;;;;;5072470;28;20230;-74
2022/09/09 04:14:34;;;;;;;10.95;9.00;;;15.20;99.90;;;;;;5072907;28;20202;-75
2022/09/09 04:17:03;;;;;;;14.32;8.75;;;15.20;99.90;;;;;;5071891;28;20229;-75
2022/09/09 04:19:31;;;;;;;13.32;10.10;;;15.20;99.90;;;;;;5070136;28;20203;-74
2022/09/09 04:21:58;;;;;;;10.57;9.45;;;15.20;99.90;;;;;;5082236;28;20202;-75
2022/09/09 04:24:28;;;;;;;12.85;10.63;;;15.30;99.90;;;;;;5084987;28;20263;-73
2022/09/09 04:26:55;;;;;;;17.42;9.98;;;15.30;99.90;;;;;;5071800;28;20553;-75
2022/09/09 04:29:24;;;;;;;10.27;8.05;;;15.30;99.90;;;;;;5084585;28;20198;-73
2022/09/09 04:31:50;;;;;;;16.83;8.55;;;15.40;99.90;;;;;;5084727;28;20210;-75
2022/09/09 04:34:17;;;;;;;9.38;7.97;;;15.30;99.90;;;;;;5083310;28;20286;-75
2022/09/09 04:36:45;;;;;;;8.48;7.00;;;15.40;99.90;;;;;;5077140;28;20301;-75
2022/09/09 04:39:12;;;;;;;10.90;8.70;;;15.40;99.90;;;;;;5073012;28;20250;-75
2022/09/09 04:41:39;;;;;;;8.00;7.18;;;15.40;99.90;;;;;;5085840;28;20216;-73
2022/09/09 04:44:06;;;;;;;9.02;8.10;;;15.50;99.90;;;;;;5077568;28;20199;-75
2022/09/09 04:46:35;;;;;;;12.52;7.72;;;15.50;99.90;;;;;;5060555;28;20246;-74
2022/09/09 04:49:02;;;;;;;10.98;6.97;;;15.50;99.90;;;;;;5079697;28;20196;-72
2022/09/09 04:51:31;;;;;;;10.13;7.35;;;15.60;99.90;;;;;;5075959;28;20203;-76
2022/09/09 04:53:57;;;;;;;11.40;8.45;;;15.60;99.90;;;;;;5084738;28;20203;-75
2022/09/09 04:56:26;;;;;;;11.05;7.85;;;15.60;99.90;;;;;;5081595;28;20224;-72
2022/09/09 04:58:54;;;;;;;8.20;7.13;;;15.60;99.90;;;;;;5072528;28;20199;-75
2022/09/09 05:01:24;;;;;;;13.07;7.22;;;15.70;99.90;;;;;;5070582;28;20204;-74
2022/09/09 05:03:53;;;;;;;9.13;8.23;;;15.70;99.90;;;;;;5067504;28;20209;-76
2022/09/09 05:06:21;;;;;;;10.60;7.78;;;15.60;99.90;;;;;;5066539;28;20235;-75
2022/09/09 05:08:49;;;;;;;8.40;7.60;;;15.60;99.90;;;;;;5070756;28;20232;-77
2022/09/09 05:11:18;;;;;;;9.57;8.68;;;15.60;99.90;;;;;;5070082;28;20567;-74
2022/09/09 05:13:45;;;;;;;13.25;8.18;;;15.60;99.90;;;;;;5071149;28;20679;-74
2022/09/09 05:16:12;;;;;;;11.77;7.13;;;15.60;99.90;;;;;;5071382;28;20330;-74
2022/09/09 05:18:39;;;;;;;12.02;8.55;;;15.60;99.90;;;;;;5069806;28;20276;-76
2022/09/09 05:21:09;;;;;;;11.63;8.77;;;15.50;99.90;;;;;;5073124;28;20272;-74
2022/09/09 05:23:36;;;;;;;9.23;6.75;;;15.50;99.90;;;;;;5077848;28;20253;-78
2022/09/09 05:26:05;;;;;;;7.55;6.75;;;15.60;99.90;;;;;;5056926;28;20272;-75
2022/09/09 05:28:31;;;;;;;7.13;6.40;;;15.70;99.90;;;;;;5071938;28;20207;-75
2022/09/09 05:31:00;;;;;;;10.95;7.35;;;15.70;99.90;;;;;;5067206;28;20207;-75
2022/09/09 05:33:27;;;;;;;12.48;8.70;;;15.70;99.90;;;;;;5063702;28;20272;-75
2022/09/09 05:35:58;;;;;;;11.85;8.65;;;15.70;99.90;;;;;;5069935;28;20697;-74
2022/09/09 05:38:27;;;;;;;15.60;10.45;;;15.70;99.90;;;;;;5063541;28;20233;-74
2022/09/09 05:40:54;;;;;;;17.77;9.23;;;15.70;99.90;;;;;;5062964;28;20557;-73
2022/09/09 05:43:21;;;;;;;8.73;7.57;;;15.70;99.90;;;;;;5066250;28;20291;-73
2022/09/09 05:45:48;;;;;;;8.52;7.30;;;15.70;99.90;;;;;;5066831;28;20280;-72
2022/09/09 05:48:16;;;;;;;9.35;8.02;;;15.80;99.90;;;;;;5068525;28;20340;-74
2022/09/09 05:50:44;;;;;;;9.27;6.75;;;15.80;99.90;;;;;;5067181;28;20205;-73
2022/09/09 05:53:11;;;;;;;7.05;6.25;;;15.90;99.90;;;;;;5069601;28;20290;-75
2022/09/09 05:55:40;;;;;;;11.82;6.53;;;16.10;99.90;;;;;;5067431;28;20302;-73
2022/09/09 05:58:07;;;;;;;9.07;7.88;;;16.10;99.90;;;;;;5067164;28;20233;-74
2022/09/09 06:00:34;;;;;;;10.18;6.78;;;16.20;99.90;;;;;;5069713;28;20289;-71
2022/09/09 06:03:01;;;;;;;12.23;6.47;;;16.30;99.90;;;;;;5068147;28;20300;-73
2022/09/09 06:05:28;;;;;;;11.47;6.13;;;16.40;99.90;;;;;;5073322;28;20204;-74
2022/09/09 06:07:55;;;;;;;6.93;4.53;;;16.80;99.90;;;;;;5068282;28;20555;-74
2022/09/09 06:10:22;;;;;;;9.67;5.20;;;17.80;99.90;;;;;;5073635;28;20937;-74
2022/09/09 06:12:54;;;;;;;8.00;4.17;;;18.70;99.90;;;;;;5072443;28;20530;-74
2022/09/09 06:15:21;;;;;;;7.60;4.60;;;19.60;99.90;;;;;;5073312;28;20449;-74
2022/09/09 06:17:54;;;;;;;7.47;4.40;;;20.70;99.90;;;;;;5074574;28;20556;-77
2022/09/09 06:20:21;;;;;;;7.23;4.33;;;21.10;99.90;;;;;;5073994;28;20526;-74
2022/09/09 06:22:48;;;;;;;5.67;4.60;;;20.80;99.90;;;;;;5075084;28;20453;-74
2022/09/09 06:25:15;;;;;;;6.30;4.37;;;21.20;99.90;;;;;;5074638;28;20445;-74
2022/09/09 06:27:43;;;;;;;8.80;5.87;;;21.70;99.90;;;;;;5074935;28;20552;-77
2022/09/09 06:30:13;;;;;;;6.30;4.73;;;22.40;99.90;;;;;;5074571;28;20522;-79
2022/09/09 06:32:40;;;;;;;7.27;6.03;;;22.90;99.90;;;;;;5084350;28;20445;-75
2022/09/09 06:35:08;;;;;;;5.50;3.70;;;24.20;99.90;;;;;;5076438;28;20437;-77
2022/09/09 06:37:36;;;;;;;6.47;5.10;;;24.80;99.90;;;;;;5074309;28;20592;-77
2022/09/09 06:40:06;;;;;;;5.17;3.80;;;24.50;99.90;;;;;;5073589;28;20535;-74
2022/09/09 06:42:34;;;;;;;6.07;4.30;;;24.50;99.90;;;;;;5073359;28;20532;-75
2022/09/09 06:45:01;;;;;;;7.10;4.60;;;24.10;99.90;;;;;;5071654;28;20527;-74
2022/09/09 06:47:30;;;;;;;5.00;4.43;;;23.20;99.90;;;;;;5078613;28;20464;-74
2022/09/09 06:49:58;;;;;;;11.03;5.20;;;22.50;99.90;;;;;;5071392;28;20433;-74
2022/09/09 06:52:25;;;;;;;9.17;5.50;;;21.80;99.90;;;;;;5068042;28;20950;-76
2022/09/09 06:54:53;;;;;;;8.87;5.00;;;21.20;99.90;;;;;;5072424;28;20524;-73
2022/09/09 06:57:20;;;;;;;11.33;5.13;;;21.40;99.90;;;;;;5070778;28;20566;-75
2022/09/09 06:59:46;;;;;;;9.20;4.70;;;21.80;99.90;;;;;;5065564;28;20442;-74
2022/09/09 07:02:14;;;;;;;9.10;4.13;;;21.70;99.90;;;;;;5068981;28;20437;-75
2022/09/09 07:04:43;;;;;;;11.00;4.17;;;22.10;99.90;;;;;;5071348;28;20453;-76
2022/09/09 07:07:12;;;;;;;8.10;4.23;;;22.40;99.90;;;;;;5066494;28;20501;-73
2022/09/09 07:09:39;;;;;;;6.17;3.77;;;23.00;99.90;;;;;;5062088;28;20952;-73
2022/09/09 07:12:07;;;;;;;4.13;3.67;;;23.60;99.90;;;;;;5063844;28;20841;-74
2022/09/09 07:14:34;;;;;;;5.47;4.40;;;24.20;99.90;;;;;;5078117;28;20469;-73
2022/09/09 07:17:01;;;;;;;5.93;4.00;;;24.60;99.90;;;;;;5083486;28;20507;-74
2022/09/09 07:19:28;;;;;;;5.63;3.20;;;25.00;97.80;;;;;;5075177;28;20441;-74
2022/09/09 07:21:56;;;;;;;3.60;3.10;;;26.30;97.00;;;;;;5073676;28;20760;-74
2022/09/09 07:24:23;;;;;;;4.63;3.50;;;27.20;93.80;;;;;;5069309;28;20524;-72
2022/09/09 07:26:51;;;;;;;8.40;3.67;;;27.60;92.50;;;;;;5062777;28;20503;-72
2022/09/09 07:29:18;;;;;;;6.37;3.87;;;28.10;91.90;;;;;;5061595;28;20457;-76
2022/09/09 07:31:46;;;;;;;10.07;3.90;;;28.20;89.80;;;;;;5066913;28;20487;-73
2022/09/09 07:34:13;;;;;;;8.00;3.50;;;28.60;90.50;;;;;;5074263;28;20443;-74
2022/09/09 07:36:41;;;;;;;3.97;2.83;;;28.60;90.00;;;;;;5062697;28;20567;-75
2022/09/09 07:39:12;;;;;;;4.77;3.90;;;28.90;88.40;;;;;;5061740;28;20433;-73
2022/09/09 07:41:41;;;;;;;5.80;3.07;;;28.60;89.50;;;;;;5067793;28;20480;-75
2022/09/09 07:44:10;;;;;;;5.20;3.03;;;28.80;88.10;;;;;;5066052;28;20492;-72
2022/09/09 07:46:39;;;;;;;9.10;3.57;;;29.00;88.90;;;;;;5064184;28;20560;-73
2022/09/09 07:49:06;;;;;;;5.03;3.07;;;28.70;86.70;;;;;;5070388;28;20467;-74
2022/09/09 07:51:38;;;;;;;9.10;3.33;;;29.30;87.20;;;;;;5064817;28;20457;-73
2022/09/09 07:54:09;;;;;;;10.10;3.37;;;29.40;85.90;;;;;;5066777;28;20523;-71
2022/09/09 07:56:38;;;;;;;5.70;2.80;;;29.70;85.70;;;;;;5060626;28;20484;-72
2022/09/09 07:59:06;;;;;;;4.87;2.63;;;29.90;85.70;;;;;;5059202;28;20923;-73
2022/09/09 08:01:37;;;;;;;4.37;2.70;;;30.30;84.80;;;;;;5064413;28;20449;-71
2022/09/09 08:04:05;;;;;;;5.03;3.10;;;30.10;83.90;;;;;;5070990;28;20449;-72
2022/09/09 08:06:38;;;;;;;6.40;2.83;;;29.10;84.40;;;;;;5070167;28;20464;-72
2022/09/09 08:09:05;;;;;;;5.73;3.73;;;27.50;89.70;;;;;;5071595;28;20452;-73
2022/09/09 08:11:32;;;;;;;7.17;2.57;;;27.50;90.50;;;;;;5070681;28;20529;-73
2022/09/09 08:14:01;;;;;;;8.13;2.80;;;28.10;89.90;;;;;;5070965;28;20495;-72
2022/09/09 08:16:29;;;;;;;5.53;3.20;;;28.40;88.00;;;;;;5071923;28;20563;-73
2022/09/09 08:18:57;;;;;;;3.70;2.70;;;28.20;86.20;;;;;;5064984;28;20438;-74
2022/09/09 08:21:27;;;;;;;4.63;2.97;;;27.30;89.50;;;;;;5061188;28;20449;-74
2022/09/09 08:23:56;;;;;;;11.33;2.60;;;27.40;90.90;;;;;;5070761;28;20449;-74
2022/09/09 08:26:24;;;;;;;8.80;2.77;;;27.30;91.00;;;;;;5060058;28;20446;-73
2022/09/09 08:28:54;;;;;;;4.40;2.60;;;28.10;89.30;;;;;;5068407;28;20525;-73
2022/09/09 08:31:30;;;;;;;6.40;2.63;;;28.30;88.60;;;;;;5066239;28;20473;-73
2022/09/09 08:33:59;;;;;;;5.40;2.60;;;28.00;88.80;;;;;;5072431;28;20550;-73
2022/09/09 08:36:28;;;;;;;3.20;2.20;;;27.40;89.70;;;;;;5073629;28;20498;-70
2022/09/09 08:38:56;;;;;;;4.20;2.63;;;26.70;91.00;;;;;;5070988;28;20441;-71
2022/09/09 08:41:46;;;;;;;4.53;2.77;;;25.60;92.50;;;;;;5071560;28;20525;-71
2022/09/09 08:44:22;;;;;;;5.87;2.73;;;25.30;94.10;;;;;;5067116;28;20588;-73
2022/09/09 08:47:01;;;;;;;7.90;2.70;;;25.20;95.00;;;;;;5071703;28;20556;-73
2022/09/09 08:49:46;;;;;;;4.07;2.70;;;25.60;94.60;;;;;;5070659;28;20451;-71
2022/09/09 08:52:18;;;;;;;3.67;3.27;;;25.50;93.10;;;;;;5072365;28;20456;-71
2022/09/09 08:54:45;;;;;;;9.60;3.90;;;25.10;94.30;;;;;;5070424;28;20441;-73
2022/09/09 08:57:17;;;;;;;6.33;2.87;;;24.60;95.90;;;;;;5072242;28;20488;-72
2022/09/09 08:59:44;;;;;;;8.10;2.80;;;25.00;95.30;;;;;;5073878;28;20897;-71
2022/09/09 09:02:19;;;;;;;4.43;2.17;;;24.70;96.70;;;;;;5076483;28;20455;-71
2022/09/09 09:04:57;;;;;;;4.47;2.50;;;24.80;96.30;;;;;;5070783;28;20467;-71
2022/09/09 09:07:35;;;;;;;5.77;2.60;;;24.90;96.70;;;;;;5069572;28;20556;-72
2022/09/09 09:10:09;;;;;;;5.53;2.53;;;24.90;95.30;;;;;;5072193;28;20437;-71
2022/09/09 09:12:41;;;;;;;4.33;2.30;;;24.90;95.70;;;;;;5086595;28;20468;-72
2022/09/09 09:15:17;;;;;;;5.60;2.30;;;24.70;95.60;;;;;;5074590;28;20441;-73
2022/09/09 09:17:45;;;;;;;3.53;1.80;;;24.70;95.70;;;;;;5071265;28;20480;-71
2022/09/09 09:20:15;;;;;;;9.27;3.07;;;24.40;96.10;;;;;;5067785;28;20441;-71
2022/09/09 09:22:50;;;;;;;2.87;2.30;;;23.80;96.60;;;;;;5063954;28;20445;-72
2022/09/09 09:25:20;;;;;;;5.33;2.47;;;23.60;97.20;;;;;;5066441;28;20474;-71
2022/09/09 09:27:55;;;;;;;4.63;3.30;;;23.50;97.90;;;;;;5067392;28;20488;-71
2022/09/09 09:30:24;;;;;;;4.00;2.13;;;23.60;98.10;;;;;;5068861;28;20459;-73
2022/09/09 09:32:55;;;;;;;3.83;1.87;;;24.00;97.20;;;;;;5066441;28;21030;-72
2022/09/09 09:35:23;;;;;;;3.43;1.70;;;24.40;96.40;;;;;;5071018;28;20521;-73
2022/09/09 09:37:50;;;;;;;3.53;2.40;;;25.00;95.00;;;;;;5074319;28;20537;-72
2022/09/09 09:40:19;;;;;;;6.33;2.20;;;25.80;93.60;;;;;;5070015;28;20549;-73
2022/09/09 09:42:53;;;;;;;2.30;1.87;;;26.30;92.20;;;;;;5070460;28;20500;-73
2022/09/09 09:45:31;;;;;;;3.87;1.90;;;26.90;91.40;;;;;;5068690;28;20463;-71
2022/09/09 09:48:04;;;;;;;4.77;2.23;;;27.40;90.10;;;;;;5073369;28;20478;-71
2022/09/09 09:50:32;;;;;;;2.33;1.70;;;26.70;90.60;;;;;;5068267;28;20771;-73
2022/09/09 09:53:03;;;;;;;3.73;2.57;;;25.80;91.90;;;;;;5076472;28;20518;-72
2022/09/09 09:55:32;;;;;;;5.23;1.90;;;25.10;93.30;;;;;;5074639;28;20511;-71
2022/09/09 09:58:04;;;;;;;6.07;1.97;;;24.30;94.80;;;;;;5068263;28;20510;-72
2022/09/09 10:00:31;;;;;;;3.30;2.27;;;23.50;96.00;;;;;;5069132;28;20441;-71
2022/09/09 10:03:00;;;;;;;4.90;2.53;;;23.20;98.30;;;;;;5065341;28;20524;-72
2022/09/09 10:05:30;;;;;;;4.20;2.03;;;23.00;99.00;;;;;;5072360;28;20836;-72
2022/09/09 10:08:10;;;;;;;3.63;2.30;;;23.00;99.90;;;;;;5069016;28;20474;-72
2022/09/09 10:11:00;;;;;;;5.50;2.13;;;23.80;99.50;;;;;;5069611;28;20445;-71
2022/09/09 10:13:36;;;;;;;4.07;2.47;;;24.60;97.80;;;;;;5068349;28;20917;-72
2022/09/09 10:16:20;;;;;;;5.10;3.50;;;24.60;96.80;;;;;;5069849;28;20450;-72
2022/09/09 10:19:04;;;;;;;4.80;3.07;;;24.40;97.10;;;;;;5065841;28;20433;-73
2022/09/09 10:21:49;;;;;;;5.60;2.80;;;24.00;97.70;;;;;;5067164;28;20472;-72
2022/09/09 10:24:41;;;;;;;4.37;2.63;;;23.60;98.40;;;;;;5087924;28;20476;-73
2022/09/09 10:27:18;;;;;;;4.13;3.00;;;23.60;98.50;;;;;;5072753;28;20989;-71
2022/09/09 10:30:01;;;;;;;9.40;3.13;;;24.10;98.10;;;;;;5074088;28;20449;-72
2022/09/09 10:32:38;;;;;;;4.60;2.40;;;24.20;97.20;;;;;;5071962;28;20445;-73
2022/09/09 10:35:11;;;;;;;4.80;3.00;;;24.60;95.40;;;;;;5071609;28;20461;-72
2022/09/09 10:38:13;;;;;;;10.20;3.53;;;24.20;95.80;;;;;;5073222;28;20986;-72
2022/09/09 10:40:45;;;;;;;3.97;2.93;;;23.90;96.90;;;;;;5071592;28;20458;-72
2022/09/09 10:43:27;;;;;;;6.10;4.73;;;23.80;97.10;;;;;;5076551;28;20451;-73
2022/09/09 10:46:05;;;;;;;4.10;3.00;;;23.60;97.60;;;;;;5069800;28;20454;-73
2022/09/09 10:48:43;;;;;;;4.27;3.57;;;23.50;98.20;;;;;;5080411;28;20927;-73
2022/09/09 10:51:23;;;;;;;9.60;5.50;;;23.30;98.90;;;;;;5069589;28;20787;-74
2022/09/09 10:54:04;;;;;;;5.20;3.63;;;23.60;98.60;;;;;;5069752;28;20502;-72
2022/09/09 10:56:32;;;;;;;6.63;3.50;;;23.60;98.40;;;;;;5072693;28;20560;-72
2022/09/09 10:59:05;;;;;;;7.50;3.37;;;24.00;97.50;;;;;;5069593;28;20562;-74
2022/09/09 11:01:38;;;;;;;4.20;3.60;;;24.00;96.80;;;;;;5072087;28;20453;-74
2022/09/09 11:04:10;;;;;;;5.97;3.27;;;24.10;97.00;;;;;;5074131;28;20484;-72
2022/09/09 11:06:46;;;;;;;5.40;3.47;;;23.90;97.30;;;;;;5069097;28;20479;-74
2022/09/09 11:09:19;;;;;;;5.90;3.70;;;23.90;96.90;;;;;;5070024;28;20445;-73
2022/09/09 11:11:52;;;;;;;4.53;3.23;;;23.90;97.00;;;;;;5075275;28;20503;-73
2022/09/09 11:14:24;;;;;;;5.50;2.73;;;24.10;96.60;;;;;;5079364;28;20481;-71
2022/09/09 11:16:54;;;;;;;4.13;2.80;;;24.40;96.10;;;;;;5075902;28;20972;-73
2022/09/09 11:19:29;;;;;;;6.77;2.70;;;24.40;95.60;;;;;;5062867;28;20529;-73
2022/09/09 11:21:58;;;;;;;4.10;2.53;;;24.10;95.70;;;;;;5073172;28;20517;-75
2022/09/09 11:24:32;;;;;;;7.87;6.17;;;23.80;95.90;;;;;;5080872;28;20447;-73
2022/09/09 11:27:03;;;;;;;5.50;2.83;;;23.90;96.10;;;;;;5069344;28;20550;-72
2022/09/09 11:29:53;;;;;;;4.93;2.97;;;23.50;96.00;;;;;;5062070;28;20935;-72
2022/09/09 11:32:35;;;;;;;6.80;3.60;;;23.40;97.30;;;;;;5073741;28;20493;-72
2022/09/09 11:35:19;;;;;;;6.33;2.80;;;23.70;97.50;;;;;;5071960;28;20619;-73
2022/09/09 11:38:17;;;;;;;5.70;2.50;;;23.90;97.00;;;;;;5066399;28;20519;-73
2022/09/09 11:40:47;;;;;;;6.73;3.30;;;24.00;96.70;;;;;;5067871;28;20445;-73
2022/09/09 11:43:17;;;;;;;6.50;3.20;;;24.00;96.40;;;;;;5071199;28;20442;-73
2022/09/09 11:45:51;;;;;;;5.73;3.10;;;23.90;96.40;;;;;;5061549;28;20528;-75
2022/09/09 11:48:26;;;;;;;11.80;3.37;;;23.70;96.60;;;;;;5071365;28;20541;-73
2022/09/09 11:51:02;;;;;;;6.57;3.10;;;23.40;97.90;;;;;;5067985;28;20523;-73
2022/09/09 11:53:29;;;;;;;5.60;3.50;;;23.00;97.90;;;;;;5064640;28;20924;-72
2022/09/09 11:56:11;;;;;;;8.00;3.00;;;22.90;99.10;;;;;;5056663;28;20469;-73
2022/09/09 11:58:42;;;;;;;6.90;3.40;;;22.90;99.90;;;;;;5068521;28;20469;-71
2022/09/09 12:01:35;;;;;;;5.43;3.40;;;22.70;99.90;;;;;;5072309;28;20445;-75
2022/09/09 12:04:27;;;;;;;5.30;3.63;;;22.50;99.90;;;;;;5064659;28;20461;-72
2022/09/09 12:06:57;;;;;;;8.47;4.27;;;22.40;99.90;;;;;;5071114;28;20469;-71
2022/09/09 12:09:30;;;;;;;4.70;3.73;;;22.30;99.90;;;;;;5064571;28;20504;-72
2022/09/09 12:12:22;;;;;;;6.77;4.23;;;22.20;99.90;;;;;;5064805;28;20495;-72
2022/09/09 12:15:14;;;;;;;8.57;4.67;;;22.00;99.90;;;;;;5070513;28;20442;-72
2022/09/09 12:17:44;;;;;;;7.80;4.63;;;21.70;99.90;;;;;;5061824;28;20530;-73
2022/09/09 12:20:16;;;;;;;7.73;5.27;;;21.60;99.90;;;;;;5066159;28;20515;-74
2022/09/09 12:22:54;;;;;;;7.90;5.63;;;21.50;99.90;;;;;;5058708;28;20477;-72
2022/09/09 12:25:27;;;;;;;11.90;6.30;;;21.20;99.90;;;;;;5070819;28;20448;-75
2022/09/09 12:28:05;;;;;;;9.90;5.77;;;20.90;99.90;;;;;;5075145;28;20539;-73
2022/09/09 12:30:37;;;;;;;11.43;8.13;;;20.60;99.90;;;;;;5071138;28;20951;-72
2022/09/09 12:33:11;;;;;;;16.90;8.23;;;20.40;99.90;;;;;;5072271;28;20459;-75
2022/09/09 12:35:39;;;;;;;18.87;8.90;;;20.10;99.90;;;;;;5071320;28;20452;-73
2022/09/09 12:38:11;;;;;;;8.70;6.33;;;19.90;99.90;;;;;;5069938;28;20529;-72
2022/09/09 12:40:39;;;;;;;7.40;6.03;;;19.90;99.90;;;;;;5071132;28;20433;-74
2022/09/09 12:43:21;;;;;;;7.93;5.83;;;19.90;99.90;;;;;;5072187;28;20544;-74
2022/09/09 12:45:50;;;;;;;7.87;5.97;;;19.90;99.90;;;;;;5065956;28;20930;-72
2022/09/09 12:48:19;;;;;;;14.40;6.20;;;19.90;99.90;;;;;;5060476;28;20461;-74
2022/09/09 12:50:49;;;;;;;8.60;6.30;;;19.90;99.90;;;;;;5066569;28;20452;-74
2022/09/09 12:53:26;;;;;;;5.73;4.97;;;19.90;99.90;;;;;;5060830;28;20505;-73
2022/09/09 12:55:56;;;;;;;8.80;3.70;;;19.70;99.90;;;;;;5073926;28;20456;-72
2022/09/09 12:58:25;;;;;;;7.73;3.63;;;19.90;99.90;;;;;;5067340;28;20595;-72
2022/09/09 13:00:56;;;;;;;10.00;3.53;;;20.00;99.90;;;;;;5059649;28;20968;-73